createdAt,value
2022-10-18T00:01:18.362Z,20.88
2022-10-18T00:03:20.322Z,20.25
2022-10-18T00:05:22.036Z,20.02
2022-10-18T00:07:23.625Z,20.23
2022-10-18T00:09:25.136Z,18.73
2022-10-18T00:11:26.902Z,18.58
2022-10-18T00:13:28.391Z,18.10
2022-10-18T00:15:29.979Z,18.48
2022-10-18T00:17:32.106Z,18.10
2022-10-18T00:19:33.919Z,17.98
2022-10-18T00:21:35.538Z,18.55
2022-10-18T00:23:37.817Z,18.25
2022-10-18T00:25:39.352Z,17.15
2022-10-18T00:27:40.991Z,17.90
2022-10-18T00:29:42.844Z,16.70
2022-10-18T00:31:44.664Z,15.88
2022-10-18T00:33:47.158Z,16.23
2022-10-18T00:37:50.594Z,16.83
2022-10-18T00:41:58.806Z,14.43
2022-10-18T00:44:02.022Z,15.32
2022-10-18T00:46:03.560Z,14.55
2022-10-18T00:48:05.460Z,14.90
2022-10-18T00:50:08.037Z,16.10
2022-10-18T00:52:11.575Z,14.63
2022-10-18T00:54:14.955Z,14.70
2022-10-18T00:58:19.236Z,14.63
2022-10-18T01:00:21.630Z,14.73
2022-10-18T01:02:23.856Z,14.20
2022-10-18T01:04:25.360Z,14.05
2022-10-18T01:06:28.221Z,14.60
2022-10-18T01:08:32.799Z,14.35
2022-10-18T01:10:37.084Z,13.77
2022-10-18T01:12:45.203Z,13.88
2022-10-18T01:14:46.772Z,14.45
2022-10-18T01:16:48.259Z,12.90
2022-10-18T01:19:08.644Z,12.70
2022-10-18T01:21:15.065Z,13.55
2022-10-18T01:23:22.812Z,12.55
2022-10-18T01:25:44.904Z,13.35
2022-10-18T01:27:53.161Z,13.35
2022-10-18T01:30:03.573Z,13.55
2022-10-18T01:32:10.264Z,12.15
2022-10-18T01:34:14.074Z,12.93
2022-10-18T01:36:19.062Z,12.05
2022-10-18T01:38:21.626Z,11.63
2022-10-18T01:40:24.003Z,12.60
2022-10-18T01:42:26.099Z,11.95
2022-10-18T01:44:29.596Z,12.30
2022-10-18T01:46:32.645Z,12.93
2022-10-18T01:50:35.890Z,11.23
2022-10-18T01:52:47.683Z,11.88
2022-10-18T01:54:49.983Z,11.98
2022-10-18T01:56:51.825Z,11.68
2022-10-18T01:59:13.283Z,11.27
2022-10-18T02:01:35.039Z,11.23
2022-10-18T02:03:43.190Z,11.98
2022-10-18T02:05:48.875Z,11.30
2022-10-18T02:08:12.023Z,12.07
2022-10-18T02:10:22.540Z,11.68
2022-10-18T02:12:24.851Z,11.50
2022-10-18T02:14:26.936Z,11.25
2022-10-18T02:16:28.663Z,11.73
2022-10-18T02:18:36.578Z,11.70
2022-10-18T02:20:39.055Z,11.15
2022-10-18T02:22:42.742Z,11.50
2022-10-18T02:24:46.206Z,11.52
2022-10-18T02:26:47.874Z,12.20
2022-10-18T02:28:49.667Z,11.57
2022-10-18T02:31:10.705Z,11.27
2022-10-18T02:33:15.211Z,10.95
2022-10-18T02:35:29.867Z,11.05
2022-10-18T02:37:35.145Z,10.15
2022-10-18T02:39:38.271Z,10.43
2022-10-18T02:41:40.779Z,10.88
2022-10-18T02:43:42.296Z,11.18
2022-10-18T02:45:43.881Z,11.30
2022-10-18T02:47:45.816Z,10.50
2022-10-18T02:49:47.323Z,10.95
2022-10-18T02:51:48.894Z,11.25
2022-10-18T02:53:50.817Z,11.10
2022-10-18T02:55:52.356Z,10.63
2022-10-18T02:57:54.000Z,10.98
2022-10-18T02:59:55.767Z,10.88
2022-10-18T03:01:57.358Z,10.77
2022-10-18T03:03:59.204Z,10.80
2022-10-18T03:06:00.926Z,10.68
2022-10-18T03:08:02.487Z,10.18
2022-10-18T03:10:04.203Z,11.32
2022-10-18T03:12:06.253Z,10.57
2022-10-18T03:14:07.765Z,11.75
2022-10-18T03:16:09.379Z,10.27
2022-10-18T03:18:11.073Z,11.20
2022-10-18T03:20:12.747Z,11.18
2022-10-18T03:22:14.244Z,10.32
2022-10-18T03:24:16.053Z,10.10
2022-10-18T03:26:17.561Z,10.63
2022-10-18T03:28:19.304Z,10.07
2022-10-18T03:30:21.078Z,10.55
2022-10-18T03:32:22.644Z,10.40
2022-10-18T03:34:24.233Z,11.00
2022-10-18T03:36:26.094Z,10.82
2022-10-18T03:38:27.760Z,10.30
2022-10-18T03:42:35.924Z,10.05
2022-10-18T03:44:37.512Z,10.00
2022-10-18T03:46:39.066Z,10.68
2022-10-18T03:48:40.905Z,9.90
2022-10-18T03:50:42.869Z,10.30
2022-10-18T03:52:45.233Z,10.55
2022-10-18T03:54:47.002Z,10.80
2022-10-18T03:56:48.523Z,10.43
2022-10-18T03:58:50.038Z,10.73
2022-10-18T04:00:52.922Z,10.35
2022-10-18T04:02:55.971Z,10.30
2022-10-18T04:04:58.955Z,9.93
2022-10-18T04:09:04.213Z,10.20
2022-10-18T04:11:12.053Z,9.93
2022-10-18T04:13:13.990Z,9.88
2022-10-18T04:15:15.660Z,9.23
2022-10-18T04:17:17.351Z,10.32
2022-10-18T04:19:19.130Z,10.63
2022-10-18T04:21:20.836Z,10.05
2022-10-18T04:23:22.487Z,10.40
2022-10-18T04:25:24.869Z,9.65
2022-10-18T04:27:26.542Z,10.15
2022-10-18T04:29:28.029Z,10.02
2022-10-18T04:31:29.743Z,9.07
2022-10-18T04:33:31.545Z,10.18
2022-10-18T04:35:33.306Z,9.38
2022-10-18T04:37:35.827Z,9.48
2022-10-18T04:39:37.364Z,9.50
2022-10-18T04:41:38.954Z,10.15
2022-10-18T04:43:40.709Z,9.77
2022-10-18T04:45:44.531Z,9.90
2022-10-18T04:47:46.077Z,10.32
2022-10-18T04:49:48.089Z,9.93
2022-10-18T04:51:49.786Z,9.35
2022-10-18T04:53:51.474Z,9.63
2022-10-18T04:55:53.371Z,10.48
2022-10-18T04:57:54.972Z,10.32
2022-10-18T04:59:56.585Z,11.05
2022-10-18T05:01:58.457Z,10.27
2022-10-18T05:04:00.550Z,10.63
2022-10-18T05:06:03.374Z,10.85
2022-10-18T05:08:06.156Z,10.32
2022-10-18T05:10:07.972Z,10.75
2022-10-18T05:12:09.675Z,10.77
2022-10-18T05:14:11.407Z,10.32
2022-10-18T05:16:13.096Z,10.60
2022-10-18T05:18:14.601Z,10.95
2022-10-18T05:20:16.530Z,10.70
2022-10-18T05:22:18.107Z,10.20
2022-10-18T05:24:21.924Z,10.80
2022-10-18T05:26:26.079Z,11.07
2022-10-18T05:28:39.582Z,9.80
2022-10-18T05:30:41.945Z,10.18
2022-10-18T05:32:43.711Z,10.17
2022-10-18T05:34:45.284Z,10.95
2022-10-18T05:36:47.400Z,10.70
2022-10-18T05:38:49.114Z,10.35
2022-10-18T05:40:50.691Z,10.98
2022-10-18T05:42:52.633Z,10.32
2022-10-18T05:44:54.343Z,10.32
2022-10-18T05:46:55.882Z,10.38
2022-10-18T05:48:57.611Z,10.00
2022-10-18T05:50:59.758Z,10.50
2022-10-18T05:53:11.973Z,10.43
2022-10-18T05:55:14.459Z,10.85
2022-10-18T05:57:16.005Z,10.95
2022-10-18T05:59:17.531Z,11.27
2022-10-18T06:01:19.824Z,11.43
2022-10-18T06:03:21.320Z,11.07
2022-10-18T06:05:23.179Z,10.52
2022-10-18T06:07:24.927Z,11.00
2022-10-18T06:09:27.187Z,10.85
2022-10-18T06:11:29.407Z,10.05
2022-10-18T06:13:32.522Z,10.70
2022-10-18T06:15:35.454Z,10.55
2022-10-18T06:17:37.236Z,10.45
2022-10-18T06:19:39.869Z,10.13
2022-10-18T06:21:41.452Z,10.05
2022-10-18T06:23:44.215Z,10.88
2022-10-18T06:25:46.019Z,10.93
2022-10-18T06:27:47.603Z,10.75
2022-10-18T06:29:49.348Z,11.25
2022-10-18T06:31:50.947Z,10.82
2022-10-18T06:33:52.486Z,11.48
2022-10-18T06:35:58.422Z,9.63
2022-10-18T06:38:00.359Z,10.82
2022-10-18T06:40:01.885Z,11.35
2022-10-18T06:42:04.130Z,11.40
2022-10-18T06:44:13.569Z,10.60
2022-10-18T06:46:15.178Z,10.95
2022-10-18T06:48:17.490Z,11.13
2022-10-18T06:50:19.015Z,11.18
2022-10-18T06:52:25.457Z,9.98
2022-10-18T06:54:27.397Z,11.18
2022-10-18T06:56:29.108Z,11.63
2022-10-18T06:58:31.059Z,11.05
2022-10-18T07:00:32.821Z,10.55
2022-10-18T07:02:36.700Z,10.73
2022-10-18T07:04:38.315Z,10.90
2022-10-18T07:06:40.075Z,11.25
2022-10-18T07:08:41.790Z,10.40
2022-10-18T07:10:50.156Z,11.35
2022-10-18T07:12:59.209Z,11.55
2022-10-18T07:15:09.759Z,10.98
2022-10-18T07:17:11.553Z,10.88
2022-10-18T07:19:14.874Z,10.95
2022-10-18T07:21:17.654Z,10.50
2022-10-18T07:23:21.045Z,12.20
2022-10-18T07:25:24.795Z,12.23
2022-10-18T07:27:28.756Z,11.23
2022-10-18T07:29:30.726Z,11.03
2022-10-18T07:31:33.365Z,12.02
2022-10-18T07:33:35.534Z,11.18
2022-10-18T07:35:37.314Z,11.45
2022-10-18T07:37:38.901Z,11.70
2022-10-18T07:39:40.478Z,12.18
2022-10-18T07:41:42.239Z,11.40
2022-10-18T07:43:47.883Z,11.80
2022-10-18T07:45:53.072Z,11.52
2022-10-18T07:47:56.898Z,11.23
2022-10-18T07:49:58.454Z,11.65
2022-10-18T07:52:00.225Z,11.85
2022-10-18T07:54:02.047Z,12.30
2022-10-18T07:56:07.317Z,12.07
2022-10-18T07:58:11.838Z,12.38
2022-10-18T08:00:13.589Z,11.93
2022-10-18T08:02:15.136Z,11.35
2022-10-18T08:04:17.011Z,12.65
2022-10-18T08:06:19.553Z,11.80
2022-10-18T08:08:24.202Z,11.77
2022-10-18T08:10:26.026Z,12.93
2022-10-18T08:12:28.098Z,13.23
2022-10-18T08:14:29.746Z,12.40
2022-10-18T08:18:34.778Z,13.13
2022-10-18T08:20:37.003Z,12.13
2022-10-18T08:22:38.750Z,12.82
2022-10-18T08:24:40.410Z,13.05
2022-10-18T08:26:41.921Z,12.80
2022-10-18T08:28:53.556Z,12.73
2022-10-18T08:31:04.192Z,13.85
2022-10-18T08:33:05.707Z,12.63
2022-10-18T08:35:09.374Z,13.80
2022-10-18T08:37:11.012Z,12.30
2022-10-18T08:39:12.954Z,13.07
2022-10-18T08:41:14.667Z,13.48
2022-10-18T08:43:26.873Z,12.77
2022-10-18T08:45:41.273Z,12.52
2022-10-18T08:47:45.342Z,14.10
2022-10-18T08:49:49.415Z,13.10
2022-10-18T08:51:51.506Z,14.20
2022-10-18T08:54:03.595Z,13.57
2022-10-18T08:56:11.304Z,14.45
2022-10-18T08:58:21.429Z,14.38
2022-10-18T09:00:24.783Z,14.32
2022-10-18T09:02:41.862Z,14.63
2022-10-18T09:04:52.411Z,15.63
2022-10-18T09:07:09.536Z,15.40
2022-10-18T09:09:29.652Z,15.25
2022-10-18T09:11:43.036Z,17.38
2022-10-18T09:14:12.595Z,15.75
2022-10-18T09:16:21.250Z,15.68
2022-10-18T09:18:26.249Z,14.98
2022-10-18T09:20:31.125Z,16.35
2022-10-18T09:22:42.985Z,16.65
2022-10-18T09:24:49.074Z,15.88
2022-10-18T09:26:54.192Z,17.17
2022-10-18T09:29:15.802Z,17.75
2022-10-18T09:31:29.845Z,16.98
2022-10-18T09:33:39.322Z,19.98
2022-10-18T09:35:48.674Z,17.80
2022-10-18T09:37:51.958Z,18.38
2022-10-18T09:39:56.858Z,19.88
2022-10-18T09:42:03.909Z,18.60
2022-10-18T09:44:25.988Z,19.30
2022-10-18T09:46:32.630Z,18.98
2022-10-18T09:48:57.315Z,18.83
2022-10-18T09:51:11.287Z,19.02
2022-10-18T09:53:12.853Z,19.25
2022-10-18T09:55:22.327Z,19.17
2022-10-18T09:57:27.808Z,18.73
2022-10-18T09:59:40.846Z,18.63
2022-10-18T10:01:42.518Z,18.98
2022-10-18T10:03:44.519Z,18.60
2022-10-18T10:05:46.251Z,18.58
2022-10-18T10:07:48.392Z,19.02
2022-10-18T10:09:58.213Z,19.35
2022-10-18T10:11:59.868Z,19.70
2022-10-18T10:14:08.956Z,19.83
2022-10-18T10:16:10.738Z,19.55
2022-10-18T10:18:19.014Z,19.67
2022-10-18T10:20:25.002Z,19.63
2022-10-18T10:22:29.064Z,21.30
2022-10-18T10:24:50.456Z,20.95
2022-10-18T10:26:59.303Z,20.42
2022-10-18T10:29:01.317Z,19.42
2022-10-18T10:31:25.769Z,19.42
2022-10-18T10:33:37.769Z,19.17
2022-10-18T10:35:56.082Z,21.17
2022-10-18T10:37:58.015Z,21.33
2022-10-18T10:40:23.100Z,21.15
2022-10-18T10:42:27.543Z,21.30
2022-10-18T10:44:30.437Z,20.05
2022-10-18T10:48:39.286Z,20.05
2022-10-18T10:50:54.355Z,21.73
2022-10-18T10:52:57.038Z,21.42
2022-10-18T10:55:11.062Z,21.85
2022-10-18T10:57:24.841Z,21.98
2022-10-18T10:59:28.129Z,21.63
2022-10-18T11:01:32.348Z,21.13
2022-10-18T11:03:34.144Z,21.75
2022-10-18T11:05:42.652Z,20.73
2022-10-18T11:07:45.461Z,21.67
2022-10-18T11:10:05.851Z,21.70
2022-10-18T11:12:10.254Z,22.20
2022-10-18T11:14:26.231Z,22.00
2022-10-18T11:16:32.625Z,22.25
2022-10-18T11:18:35.305Z,21.75
2022-10-18T11:20:44.497Z,21.30
2022-10-18T11:22:57.175Z,22.08
2022-10-18T11:24:58.697Z,21.45
2022-10-18T11:27:08.353Z,22.10
2022-10-18T11:29:12.779Z,21.05
2022-10-18T11:31:14.842Z,21.73
2022-10-18T11:33:16.761Z,23.02
2022-10-18T11:35:38.924Z,22.08
2022-10-18T11:37:55.614Z,22.17
2022-10-18T11:40:08.345Z,22.85
2022-10-18T11:42:20.939Z,22.48
2022-10-18T11:44:36.019Z,24.33
2022-10-18T11:46:45.450Z,24.73
2022-10-18T11:48:46.968Z,23.70
2022-10-18T11:51:12.083Z,23.00
2022-10-18T11:53:19.888Z,23.55
2022-10-18T11:55:26.599Z,23.85
2022-10-18T11:57:43.667Z,24.02
2022-10-18T12:00:04.320Z,23.08
2022-10-18T12:02:17.951Z,22.52
2022-10-18T12:04:21.243Z,23.15
2022-10-18T12:06:25.225Z,22.38
2022-10-18T12:08:38.717Z,23.23
2022-10-18T12:10:53.069Z,22.15
2022-10-18T12:13:07.275Z,23.30
2022-10-18T12:15:12.108Z,23.42
2022-10-18T12:17:42.915Z,23.55
2022-10-18T12:19:47.134Z,23.38
2022-10-18T12:21:49.544Z,22.58
2022-10-18T12:23:53.116Z,22.92
2022-10-18T12:25:56.307Z,24.02
2022-10-18T12:30:11.203Z,23.58
2022-10-18T12:32:14.440Z,24.50
2022-10-18T12:34:21.930Z,21.38
2022-10-18T12:36:41.645Z,23.63
2022-10-18T12:38:45.330Z,22.05
2022-10-18T12:40:50.920Z,22.13
2022-10-18T12:42:53.253Z,22.13
2022-10-18T12:45:06.302Z,23.58
2022-10-18T12:47:20.962Z,23.25
2022-10-18T12:49:29.792Z,22.65
2022-10-18T12:51:32.050Z,23.48
2022-10-18T12:53:34.464Z,24.20
2022-10-18T12:55:38.092Z,24.70
2022-10-18T12:57:52.873Z,25.50
2022-10-18T12:59:54.951Z,24.80
2022-10-18T13:01:56.558Z,23.60
2022-10-18T13:03:59.316Z,23.60
2022-10-18T13:08:25.991Z,25.60
2022-10-18T13:10:35.058Z,24.52
2022-10-18T13:12:52.695Z,25.20
2022-10-18T13:15:24.683Z,24.25
2022-10-18T13:17:31.324Z,26.60
2022-10-18T13:19:35.892Z,24.88
2022-10-18T13:21:52.412Z,24.02
2022-10-18T13:24:09.728Z,24.70
2022-10-18T13:26:14.380Z,25.60
2022-10-18T13:28:24.865Z,25.92
2022-10-18T13:30:29.998Z,25.67
2022-10-18T13:32:37.219Z,25.88
2022-10-18T13:34:39.271Z,24.90
2022-10-18T13:36:42.007Z,26.08
2022-10-18T13:38:43.663Z,25.85
2022-10-18T13:40:45.344Z,25.60
2022-10-18T13:42:47.456Z,24.42
2022-10-18T13:44:49.044Z,27.87
2022-10-18T13:46:51.392Z,25.98
2022-10-18T13:48:54.791Z,26.17
2022-10-18T13:51:06.552Z,27.30
2022-10-18T13:53:14.492Z,26.75
2022-10-18T13:55:36.213Z,27.27
2022-10-18T13:57:50.053Z,28.00
2022-10-18T13:59:54.470Z,27.92
2022-10-18T14:01:56.218Z,28.05
2022-10-18T14:04:07.898Z,28.58
2022-10-18T14:06:12.231Z,26.30
2022-10-18T14:11:01.469Z,27.52
2022-10-18T14:13:04.715Z,25.55
2022-10-18T14:15:24.440Z,24.67
2022-10-18T14:17:43.097Z,26.00
2022-10-18T14:19:47.962Z,24.88
2022-10-18T14:21:53.596Z,24.95
2022-10-18T14:23:55.195Z,25.70
2022-10-18T14:26:06.296Z,25.90
2022-10-18T14:28:15.454Z,27.08
2022-10-18T14:30:18.302Z,27.38
2022-10-18T14:34:21.725Z,27.17
2022-10-18T14:36:24.907Z,26.10
2022-10-18T14:38:26.896Z,28.20
2022-10-18T14:40:37.957Z,27.50
2022-10-18T14:42:48.059Z,27.85
2022-10-18T14:44:54.205Z,28.50
2022-10-18T14:47:00.919Z,27.58
2022-10-18T14:49:04.484Z,28.80
2022-10-18T14:51:07.781Z,28.67
2022-10-18T14:53:13.573Z,30.05
2022-10-18T14:55:23.388Z,29.15
2022-10-18T14:57:30.289Z,29.15
2022-10-18T14:59:58.564Z,31.08
2022-10-18T15:02:02.034Z,30.15
2022-10-18T15:04:05.991Z,31.15
2022-10-18T15:06:08.470Z,29.52
2022-10-18T15:08:10.135Z,28.38
2022-10-18T15:10:34.782Z,25.73
2022-10-18T15:13:04.416Z,23.67
2022-10-18T15:17:03.569Z,14.50
2022-10-18T15:19:07.200Z,12.50
2022-10-18T15:21:10.320Z,10.82
2022-10-18T15:23:23.175Z,7.50
2022-10-18T15:25:32.079Z,6.65
2022-10-18T15:27:36.214Z,4.40
2022-10-18T15:29:38.259Z,4.07
2022-10-18T15:31:42.907Z,4.57
2022-10-18T15:33:44.516Z,4.07
2022-10-18T15:35:46.241Z,4.70
2022-10-18T15:37:48.572Z,5.78
2022-10-18T15:40:10.073Z,5.43
2022-10-18T15:42:50.760Z,5.82
2022-10-18T15:44:53.647Z,6.80
2022-10-18T15:46:56.756Z,7.35
2022-10-18T15:49:18.237Z,9.25
2022-10-18T15:51:37.737Z,10.07
2022-10-18T15:53:43.764Z,10.50
2022-10-18T15:55:46.983Z,13.07
2022-10-18T15:57:49.435Z,13.13
2022-10-18T15:59:51.116Z,12.88
2022-10-18T16:01:52.860Z,13.98
2022-10-18T16:06:04.154Z,15.77
2022-10-18T16:08:05.915Z,16.65
2022-10-18T16:10:16.658Z,16.45
2022-10-18T16:12:18.225Z,17.83
2022-10-18T16:14:19.999Z,16.20
2022-10-18T16:16:26.161Z,17.02
2022-10-18T16:18:28.381Z,17.08
2022-10-18T16:20:30.417Z,18.85
2022-10-18T16:22:34.747Z,19.08
2022-10-18T16:24:38.877Z,18.33
2022-10-18T16:26:40.504Z,20.08
2022-10-18T16:28:43.500Z,21.52
2022-10-18T16:30:47.274Z,20.88
2022-10-18T16:32:49.028Z,21.27
2022-10-18T16:34:50.846Z,28.40
2022-10-18T16:36:53.056Z,25.77
2022-10-18T16:38:55.205Z,23.45
2022-10-18T16:40:57.333Z,22.63
2022-10-18T16:43:00.054Z,22.55
2022-10-18T16:45:01.831Z,22.83
2022-10-18T16:47:03.716Z,22.83
2022-10-18T16:49:05.469Z,21.83
2022-10-18T16:51:07.050Z,23.48
2022-10-18T16:53:08.817Z,23.13
2022-10-18T16:55:17.301Z,22.27
2022-10-18T16:57:18.911Z,22.15
2022-10-18T16:59:22.977Z,23.27
2022-10-18T17:01:25.119Z,23.75
2022-10-18T17:03:26.795Z,23.83
2022-10-18T17:05:28.642Z,24.58
2022-10-18T17:07:30.222Z,43.58
2022-10-18T17:09:34.741Z,51.42
2022-10-18T17:11:36.510Z,31.83
2022-10-18T17:13:38.079Z,29.67
2022-10-18T17:15:42.368Z,29.52
2022-10-18T17:17:44.296Z,31.60
2022-10-18T17:19:47.043Z,30.85
2022-10-18T17:21:48.552Z,29.70
2022-10-18T17:23:50.460Z,28.30
2022-10-18T17:26:05.026Z,24.98
2022-10-18T17:28:11.046Z,26.08
2022-10-18T17:30:13.622Z,23.88
2022-10-18T17:32:15.350Z,24.17
2022-10-18T17:34:21.427Z,21.02
2022-10-18T17:36:23.773Z,17.60
2022-10-18T17:38:25.350Z,16.52
2022-10-18T17:40:27.068Z,15.25
2022-10-18T17:42:29.262Z,11.57
2022-10-18T17:44:30.882Z,13.05
2022-10-18T17:46:32.882Z,9.93
2022-10-18T17:48:34.678Z,8.93
2022-10-18T17:50:39.583Z,9.07
2022-10-18T17:54:45.544Z,9.43
2022-10-18T17:56:49.847Z,9.10
2022-10-18T17:58:52.865Z,10.38
2022-10-18T18:00:54.663Z,10.65
2022-10-18T18:02:57.189Z,10.75
2022-10-18T18:04:58.771Z,11.60
2022-10-18T18:07:02.471Z,13.40
2022-10-18T18:09:07.292Z,13.38
2022-10-18T18:11:09.156Z,13.88
2022-10-18T18:13:14.046Z,13.55
2022-10-18T18:15:18.018Z,12.57
2022-10-18T18:17:28.630Z,12.52
2022-10-18T18:19:36.726Z,12.43
2022-10-18T18:21:39.386Z,12.45
2022-10-18T18:23:41.608Z,12.48
2022-10-18T18:25:43.103Z,13.68
2022-10-18T18:27:44.859Z,12.23
2022-10-18T18:29:46.671Z,19.13
2022-10-18T18:31:48.409Z,12.88
2022-10-18T18:33:51.123Z,12.15
2022-10-18T18:37:54.403Z,11.27
2022-10-18T18:39:56.035Z,11.45
2022-10-18T18:41:57.799Z,11.27
2022-10-18T18:44:00.573Z,12.15
2022-10-18T18:46:02.500Z,11.30
2022-10-18T18:48:04.748Z,11.93
2022-10-18T18:50:06.701Z,11.88
2022-10-18T18:52:08.251Z,11.88
2022-10-18T18:54:10.816Z,10.82
2022-10-18T18:56:14.425Z,10.65
2022-10-18T18:58:16.513Z,11.13
2022-10-18T19:00:18.309Z,12.15
2022-10-18T19:02:19.879Z,10.52
2022-10-18T19:04:21.493Z,10.98
2022-10-18T19:06:24.544Z,11.00
2022-10-18T19:08:26.119Z,9.73
2022-10-18T19:10:27.975Z,10.15
2022-10-18T19:12:29.679Z,11.30
2022-10-18T19:14:31.205Z,11.07
2022-10-18T19:16:36.394Z,11.45
2022-10-18T19:18:38.361Z,11.02
2022-10-18T19:20:39.932Z,11.52
2022-10-18T19:22:42.335Z,12.63
2022-10-18T19:24:44.133Z,12.00
2022-10-18T19:26:47.310Z,12.05
2022-10-18T19:28:48.919Z,13.43
2022-10-18T19:30:52.922Z,12.05
2022-10-18T19:33:01.117Z,11.20
2022-10-18T19:35:05.220Z,12.30
2022-10-18T19:37:09.412Z,11.83
2022-10-18T19:39:29.916Z,11.95
2022-10-18T19:41:31.747Z,12.30
2022-10-18T19:43:33.441Z,13.10
2022-10-18T19:45:35.131Z,14.55
2022-10-18T19:47:38.307Z,14.65
2022-10-18T19:49:40.469Z,16.48
2022-10-18T19:51:42.074Z,16.67
2022-10-18T19:53:43.678Z,16.80
2022-10-18T19:55:45.540Z,14.90
2022-10-18T19:57:47.191Z,14.70
2022-10-18T19:59:48.744Z,14.25
2022-10-18T20:01:50.864Z,15.77
2022-10-18T20:03:52.470Z,12.98
2022-10-18T20:05:55.731Z,13.90
2022-10-18T20:07:57.904Z,13.77
2022-10-18T20:09:59.531Z,13.95
2022-10-18T20:12:01.399Z,13.27
2022-10-18T20:14:05.460Z,12.98
2022-10-18T20:16:08.770Z,13.05
2022-10-18T20:18:10.352Z,13.55
2022-10-18T20:20:12.169Z,13.10
2022-10-18T20:22:14.073Z,12.90
2022-10-18T20:24:15.772Z,12.98
2022-10-18T20:26:20.549Z,13.15
2022-10-18T20:28:22.843Z,12.00
2022-10-18T20:30:24.461Z,11.95
2022-10-18T20:32:26.203Z,12.07
2022-10-18T20:34:28.578Z,10.88
2022-10-18T20:36:31.442Z,11.30
2022-10-18T20:38:34.174Z,16.60
2022-10-18T20:40:35.790Z,11.95
2022-10-18T20:42:37.406Z,12.10
2022-10-18T20:44:43.195Z,11.88
2022-10-18T20:46:45.035Z,12.82
2022-10-18T20:48:47.048Z,12.32
2022-10-18T20:50:48.787Z,12.88
2022-10-18T20:52:51.332Z,13.00
2022-10-18T20:54:52.901Z,13.43
2022-10-18T20:56:54.639Z,14.00
2022-10-18T20:58:56.968Z,13.75
2022-10-18T21:01:30.774Z,14.13
2022-10-18T21:05:34.403Z,14.60
2022-10-18T21:07:36.043Z,15.55
2022-10-18T21:09:38.457Z,16.53
2022-10-18T21:11:41.300Z,16.23
2022-10-18T21:13:43.019Z,17.02
2022-10-18T21:15:53.082Z,19.30
2022-10-18T21:17:54.658Z,19.13
2022-10-18T21:19:56.232Z,19.02
2022-10-18T21:21:58.366Z,19.60
2022-10-18T21:24:02.532Z,19.05
2022-10-18T21:26:07.680Z,18.50
2022-10-18T21:28:09.451Z,18.38
2022-10-18T21:32:14.314Z,20.70
2022-10-18T21:34:17.538Z,20.35
2022-10-18T21:38:20.611Z,20.83
2022-10-18T21:40:22.481Z,22.17
2022-10-18T21:42:24.410Z,24.20
2022-10-18T21:44:26.051Z,22.90
2022-10-18T21:46:27.829Z,24.02
2022-10-18T21:48:29.587Z,23.65
2022-10-18T21:50:31.084Z,23.50
2022-10-18T21:52:33.356Z,22.43
2022-10-18T21:54:35.108Z,24.15
2022-10-18T21:56:36.790Z,24.45
2022-10-18T21:58:38.848Z,25.92
2022-10-18T22:00:40.656Z,25.58
2022-10-18T22:02:42.219Z,25.98
2022-10-18T22:04:44.186Z,26.50
2022-10-18T22:06:45.730Z,27.80
2022-10-18T22:08:49.255Z,26.40
2022-10-18T22:10:51.331Z,27.38
2022-10-18T22:12:52.850Z,26.58
2022-10-18T22:14:54.466Z,28.65
2022-10-18T22:16:56.184Z,27.58
2022-10-18T22:18:59.197Z,29.30
2022-10-18T22:23:02.391Z,27.85
2022-10-18T22:25:04.548Z,27.10
2022-10-18T22:27:06.118Z,27.27
2022-10-18T22:29:10.214Z,27.50
2022-10-18T22:31:18.622Z,27.85
2022-10-18T22:33:20.374Z,28.40
2022-10-18T22:35:22.478Z,28.98
2022-10-18T22:37:24.079Z,29.08
2022-10-18T22:39:25.694Z,29.50
2022-10-18T22:41:27.415Z,30.88
2022-10-18T22:43:29.295Z,29.73
2022-10-18T22:45:30.827Z,30.15
2022-10-18T22:47:32.839Z,30.75
2022-10-18T22:49:34.628Z,31.23
2022-10-18T22:53:42.884Z,30.35
2022-10-18T22:55:44.392Z,30.08
2022-10-18T22:57:45.902Z,32.20
2022-10-18T22:59:47.587Z,32.40
2022-10-18T23:01:49.073Z,32.15
2022-10-18T23:03:54.791Z,31.90
2022-10-18T23:05:56.537Z,34.00
2022-10-18T23:07:58.009Z,33.10
2022-10-18T23:09:59.502Z,33.45
2022-10-18T23:12:01.271Z,33.33
2022-10-18T23:14:03.943Z,32.08
2022-10-18T23:16:05.525Z,30.38
2022-10-18T23:18:07.434Z,30.58
2022-10-18T23:20:09.190Z,30.50
2022-10-18T23:22:10.757Z,29.50
2022-10-18T23:24:12.628Z,29.90
2022-10-18T23:26:15.330Z,29.13
2022-10-18T23:28:16.888Z,30.23
2022-10-18T23:30:18.710Z,29.45
2022-10-18T23:32:20.369Z,29.63
2022-10-18T23:34:22.160Z,29.42
2022-10-18T23:36:23.916Z,28.85
2022-10-18T23:38:25.425Z,28.00
2022-10-18T23:40:26.994Z,27.40
2022-10-18T23:42:28.702Z,25.95
2022-10-18T23:44:30.414Z,26.15
2022-10-18T23:46:31.968Z,24.98
2022-10-18T23:48:34.294Z,27.23
2022-10-18T23:50:35.871Z,27.00
2022-10-18T23:52:37.435Z,24.65
2022-10-18T23:54:39.227Z,24.88
2022-10-18T23:56:40.783Z,25.02
2022-10-18T23:58:42.615Z,23.38
